Terminal Aerodrome Forecast
Issued by NWS Billings, MT

Home | Current Version | Previous Version | Text Only | Print | Product List | Glossary On
Versions: 1 2 3 4 5 6 7 8 9 10 11 12 13 14 15 16 17 18 19 20 21 22 23 24 25 26 27 28 29 30 31 32 33 34 35 36 37 38 39 40 41 42 43 44 45 46 47 48
690
FTUS45 KBYZ 230306 AAA
TAFMLS
TAF AMD
KMLS 230306Z 2303/2324 VRB05KT 6SM BR OVC008
     FM230500 VRB05KT 3SM BR OVC007
     FM230800 08007KT 1/2SM FZFG VV003
     FM232000 03008KT 6SM BR SCT003 OVC008=

USA.gov is the U.S. government's official web portal to all federal, state and local government web resources and services.